Terminal Aerodrome Forecast
Issued by NWS Amarillo, TX

Home | Current Version | Previous Version | Text Only | Print | Product List | Glossary On
Versions: 1 2 3 4 5 6 7 8 9 10 11 12 13 14 15 16 17 18 19 20 21 22 23 24
000
FTUS44 KAMA 281500 AAE
TAFAMA
TAF AMD
KAMA 281526Z 2815/2912 06014KT P6SM VCTS SCT005 BKN060CB
      TEMPO 2815/2817 5SM -TSRA OVC040CB
     FM281700 12012KT P6SM BKN250
     FM290100 15010KT P6SM BKN080=

USA.gov is the U.S. government's official web portal to all federal, state and local government web resources and services.